createdAt,value
2015-10-25T00:00:52.340Z,8.6
2015-10-25T00:01:52.295Z,8.5
2015-10-25T00:02:52.235Z,8.5
2015-10-25T00:03:52.188Z,8.4
2015-10-25T00:04:52.129Z,8.4
2015-10-25T00:05:52.069Z,8.5
2015-10-25T00:06:52.024Z,8.6
2015-10-25T00:07:51.965Z,8.6
2015-10-25T00:08:51.905Z,8.6
2015-10-25T00:09:51.861Z,8.6
2015-10-25T00:10:51.817Z,8.5
2015-10-25T00:11:51.756Z,8.5
2015-10-25T00:12:51.698Z,8.5
2015-10-25T00:13:51.653Z,8.5
2015-10-25T00:14:51.593Z,8.5
2015-10-25T00:15:51.549Z,8.5
2015-10-25T00:16:51.489Z,8.5
2015-10-25T00:17:51.429Z,8.4
2015-10-25T00:18:51.386Z,8.4
2015-10-25T00:19:51.326Z,8.5
2015-10-25T00:20:51.282Z,8.5
2015-10-25T00:21:51.222Z,8.5
2015-10-25T00:22:51.162Z,8.5
2015-10-25T00:23:51.117Z,8.4
2015-10-25T00:24:51.059Z,8.4
2015-10-25T00:25:50.999Z,8.4
2015-10-25T00:26:50.953Z,8.4
2015-10-25T00:27:50.895Z,8.5
2015-10-25T00:28:50.851Z,8.5
2015-10-25T00:29:50.792Z,8.5
2015-10-25T00:30:50.747Z,8.5
2015-10-25T00:31:50.687Z,8.5
2015-10-25T00:32:50.642Z,8.5
2015-10-25T00:33:50.583Z,8.5
2015-10-25T00:34:50.523Z,8.5
2015-10-25T00:35:50.464Z,8.5
2015-10-25T00:36:50.420Z,8.5
2015-10-25T00:37:50.370Z,8.5
2015-10-25T00:38:50.297Z,8.5
2015-10-25T00:39:50.223Z,8.5
2015-10-25T00:40:50.149Z,8.5
2015-10-25T00:41:50.090Z,8.5
2015-10-25T00:42:50.021Z,8.5
2015-10-25T00:43:49.971Z,8.5
2015-10-25T00:44:49.907Z,8.4
2015-10-25T00:45:49.841Z,8.4
2015-10-25T00:46:49.792Z,8.4
2015-10-25T00:47:49.730Z,8.4
2015-10-25T00:48:49.684Z,8.5
2015-10-25T00:49:49.622Z,8.5
2015-10-25T00:50:49.560Z,8.5
2015-10-25T00:51:49.514Z,8.4
2015-10-25T00:52:49.453Z,8.3
2015-10-25T00:53:49.392Z,8.3
2015-10-25T00:54:49.347Z,8.4
2015-10-25T00:55:49.287Z,8.5
2015-10-25T00:56:49.242Z,8.5
2015-10-25T00:57:49.181Z,8.5
2015-10-25T00:58:49.137Z,8.5
2015-10-25T00:59:49.076Z,8.5
2015-10-25T01:00:49.017Z,8.5
2015-10-25T01:01:48.987Z,8.5
2015-10-25T01:02:48.911Z,8.5
2015-10-25T01:03:48.868Z,8.5
2015-10-25T01:04:48.808Z,8.6
2015-10-25T01:05:48.764Z,8.6
2015-10-25T01:06:48.703Z,8.7
2015-10-25T01:07:48.645Z,8.7
2015-10-25T01:08:48.600Z,8.6
2015-10-25T01:09:48.541Z,8.6
2015-10-25T01:10:48.481Z,8.6
2015-10-25T01:11:48.437Z,8.6
2015-10-25T01:12:48.377Z,8.7
2015-10-25T01:13:48.332Z,8.6
2015-10-25T01:14:48.273Z,8.6
2015-10-25T01:15:48.228Z,8.7
2015-10-25T01:16:48.169Z,8.6
2015-10-25T01:17:48.108Z,8.6
2015-10-25T01:18:48.066Z,8.6
2015-10-25T01:19:48.005Z,8.6
2015-10-25T01:20:47.946Z,8.6
2015-10-25T01:21:47.901Z,8.6
2015-10-25T01:22:47.842Z,8.5
2015-10-25T01:23:47.797Z,8.6
2015-10-25T01:24:47.738Z,8.6
2015-10-25T01:25:47.678Z,8.6
2015-10-25T01:26:47.633Z,8.5
2015-10-25T01:27:47.574Z,8.5
2015-10-25T01:28:47.530Z,8.5
2015-10-25T01:29:47.470Z,8.4
2015-10-25T01:30:47.410Z,8.4
2015-10-25T01:31:47.366Z,8.5
2015-10-25T01:32:47.307Z,8.5
2015-10-25T01:33:47.263Z,8.5
2015-10-25T01:34:47.203Z,8.6
2015-10-25T01:35:47.158Z,8.6
2015-10-25T01:36:47.099Z,8.6
2015-10-25T01:37:47.036Z,8.6
2015-10-25T01:38:46.977Z,8.6
2015-10-25T01:39:46.932Z,8.5
2015-10-25T01:40:46.873Z,8.4
2015-10-25T01:41:46.829Z,8.4
2015-10-25T01:42:46.768Z,8.4
2015-10-25T01:43:46.724Z,8.4
2015-10-25T01:44:46.664Z,8.4
2015-10-25T01:45:46.605Z,8.5
2015-10-25T01:46:46.560Z,8.5
2015-10-25T01:47:46.501Z,8.5
2015-10-25T01:48:46.457Z,8.5
2015-10-25T01:49:46.397Z,8.6
2015-10-25T01:50:46.354Z,8.7
2015-10-25T01:51:46.293Z,8.6
2015-10-25T01:52:46.249Z,8.7
2015-10-25T01:53:46.190Z,8.7
2015-10-25T01:54:46.130Z,8.8
2015-10-25T01:55:46.085Z,8.7
2015-10-25T01:56:46.025Z,8.7
2015-10-25T01:57:45.982Z,8.6
2015-10-25T01:58:45.923Z,8.6
2015-10-25T01:59:45.862Z,8.6
2015-10-25T02:00:45.818Z,8.6
2015-10-25T02:01:45.759Z,8.6
2015-10-25T02:02:45.714Z,8.7
2015-10-25T02:03:45.670Z,8.7
2015-10-25T02:04:45.595Z,8.7
2015-10-25T02:05:45.550Z,8.6
2015-10-25T02:06:45.490Z,8.6
2015-10-25T02:07:45.447Z,8.5
2015-10-25T02:08:45.386Z,8.6
2015-10-25T02:09:45.328Z,8.6
2015-10-25T02:10:45.284Z,8.5
2015-10-25T02:11:45.239Z,8.5
2015-10-25T02:12:45.179Z,8.6
2015-10-25T02:13:45.134Z,8.6
2015-10-25T02:14:45.075Z,8.6
2015-10-25T02:15:45.015Z,8.7
2015-10-25T02:16:44.956Z,8.7
2015-10-25T02:17:44.911Z,8.7
2015-10-25T02:18:44.853Z,8.7
2015-10-25T02:19:44.808Z,8.6
2015-10-25T02:20:44.764Z,8.6
2015-10-25T02:21:44.703Z,8.7
2015-10-25T02:22:44.644Z,8.7
2015-10-25T02:23:44.600Z,8.7
2015-10-25T02:24:44.553Z,8.7
2015-10-25T02:25:44.494Z,8.7
2015-10-25T02:26:44.433Z,8.7
2015-10-25T02:27:44.374Z,8.6
2015-10-25T02:28:44.330Z,8.6
2015-10-25T02:29:44.270Z,8.5
2015-10-25T02:30:44.225Z,8.5
2015-10-25T02:31:44.166Z,8.4
2015-10-25T02:32:44.122Z,8.4
2015-10-25T02:33:44.061Z,8.4
2015-10-25T02:34:44.002Z,8.5
2015-10-25T02:35:43.958Z,8.6
2015-10-25T02:36:43.899Z,8.6
2015-10-25T02:37:43.854Z,8.6
2015-10-25T02:38:43.794Z,8.6
2015-10-25T02:39:43.735Z,8.6
2015-10-25T02:40:43.691Z,8.6
2015-10-25T02:41:43.631Z,8.6
2015-10-25T02:42:43.586Z,8.6
2015-10-25T02:43:43.527Z,8.5
2015-10-25T02:44:43.466Z,8.5
2015-10-25T02:45:43.424Z,8.4
2015-10-25T02:46:43.363Z,8.4
2015-10-25T02:47:43.319Z,8.5
2015-10-25T02:48:43.260Z,8.6
2015-10-25T02:49:43.216Z,8.6
2015-10-25T02:50:43.155Z,8.6
2015-10-25T02:51:43.096Z,8.6
2015-10-25T02:52:43.052Z,8.7
2015-10-25T02:53:42.992Z,8.6
2015-10-25T02:54:42.948Z,8.7
2015-10-25T02:55:42.888Z,8.6
2015-10-25T02:56:42.829Z,8.6
2015-10-25T02:57:42.785Z,8.6
2015-10-25T02:58:42.724Z,8.6
2015-10-25T02:59:42.697Z,8.6
2015-10-25T03:00:42.621Z,8.7
2015-10-25T03:01:42.576Z,8.7
2015-10-25T03:02:42.516Z,8.7
2015-10-25T03:03:42.473Z,8.7
2015-10-25T03:04:42.413Z,8.6
2015-10-25T03:05:42.354Z,8.6
2015-10-25T03:06:42.310Z,8.6
2015-10-25T03:07:42.265Z,8.6
2015-10-25T03:08:42.205Z,8.5
2015-10-25T03:09:42.145Z,8.6
2015-10-25T03:10:42.082Z,8.5
2015-10-25T03:11:42.039Z,8.5
2015-10-25T03:12:41.979Z,8.5
2015-10-25T03:13:41.935Z,8.6
2015-10-25T03:14:41.876Z,8.6
2015-10-25T03:15:41.815Z,8.6
2015-10-25T03:16:41.771Z,8.6
2015-10-25T03:17:41.712Z,8.6
2015-10-25T03:18:41.667Z,8.5
2015-10-25T03:19:41.607Z,8.5
2015-10-25T03:20:41.548Z,8.6
2015-10-25T03:21:41.504Z,8.6
2015-10-25T03:22:41.444Z,8.6
2015-10-25T03:23:41.400Z,8.7
2015-10-25T03:24:41.339Z,8.7
2015-10-25T03:25:41.280Z,8.7
2015-10-25T03:26:41.237Z,8.7
2015-10-25T03:27:41.176Z,8.6
2015-10-25T03:28:41.132Z,8.6
2015-10-25T03:29:41.073Z,8.7
2015-10-25T03:30:41.028Z,8.7
2015-10-25T03:31:40.968Z,8.7
2015-10-25T03:32:40.909Z,8.8
2015-10-25T03:33:40.848Z,8.8
2015-10-25T03:34:40.806Z,8.8
2015-10-25T03:35:40.745Z,8.8
2015-10-25T03:36:40.701Z,8.7
2015-10-25T03:37:40.641Z,8.8
2015-10-25T03:38:40.597Z,8.7
2015-10-25T03:39:40.537Z,8.8
2015-10-25T03:40:40.478Z,8.8
2015-10-25T03:41:40.433Z,8.7
2015-10-25T03:42:40.373Z,8.7
2015-10-25T03:43:40.330Z,8.7
2015-10-25T03:44:40.270Z,8.7
2015-10-25T03:45:40.211Z,8.8
2015-10-25T03:46:40.167Z,8.8
2015-10-25T03:47:40.122Z,8.7
2015-10-25T03:48:40.062Z,8.8
2015-10-25T03:49:40.002Z,8.8
2015-10-25T03:50:39.958Z,8.8
2015-10-25T03:51:39.898Z,8.9
2015-10-25T03:52:39.839Z,8.9
2015-10-25T03:53:39.794Z,8.9
2015-10-25T03:54:39.735Z,8.9
2015-10-25T03:55:39.691Z,8.9
2015-10-25T03:56:39.631Z,9
2015-10-25T03:57:39.571Z,9
2015-10-25T03:58:39.527Z,9
2015-10-25T03:59:39.464Z,8.9
2015-10-25T04:00:39.420Z,8.9
2015-10-25T04:01:39.361Z,8.9
2015-10-25T04:02:39.317Z,8.9
2015-10-25T04:03:39.257Z,8.9
2015-10-25T04:04:39.196Z,8.9
2015-10-25T04:05:39.153Z,8.9
2015-10-25T04:06:39.094Z,8.9
2015-10-25T04:07:39.049Z,8.9
2015-10-25T04:08:38.989Z,8.9
2015-10-25T04:09:38.945Z,8.9
2015-10-25T04:10:38.885Z,8.8
2015-10-25T04:11:38.840Z,8.8
2015-10-25T04:12:38.782Z,8.8
2015-10-25T04:13:38.721Z,8.8
2015-10-25T04:14:38.677Z,8.8
2015-10-25T04:15:38.618Z,8.9
2015-10-25T04:16:38.574Z,8.9
2015-10-25T04:17:38.514Z,9
2015-10-25T04:18:38.469Z,9
2015-10-25T04:19:38.410Z,8.9
2015-10-25T04:20:38.366Z,8.9
2015-10-25T04:21:38.307Z,8.9
2015-10-25T04:22:38.247Z,9
2015-10-25T04:23:38.202Z,8.9
2015-10-25T04:24:38.143Z,9
2015-10-25T04:25:38.098Z,9
2015-10-25T04:26:38.054Z,9
2015-10-25T04:27:37.994Z,9
2015-10-25T04:28:37.934Z,9
2015-10-25T04:29:37.890Z,9
2015-10-25T04:30:37.831Z,9
2015-10-25T04:31:37.771Z,9
2015-10-25T04:32:37.711Z,9
2015-10-25T04:33:37.667Z,9
2015-10-25T04:34:37.623Z,9.1
2015-10-25T04:35:37.563Z,9
2015-10-25T04:36:37.504Z,9
2015-10-25T04:37:37.459Z,8.9
2015-10-25T04:38:37.399Z,8.9
2015-10-25T04:39:37.356Z,8.9
2015-10-25T04:40:37.296Z,9
2015-10-25T04:41:37.237Z,9
2015-10-25T04:42:37.193Z,9
2015-10-25T04:43:37.132Z,9
2015-10-25T04:44:37.088Z,9
2015-10-25T04:45:37.043Z,9
2015-10-25T04:46:36.965Z,9
2015-10-25T04:47:36.921Z,9
2015-10-25T04:48:36.862Z,9
2015-10-25T04:49:36.818Z,9
2015-10-25T04:50:36.758Z,9
2015-10-25T04:51:36.714Z,9
2015-10-25T04:52:36.654Z,9
2015-10-25T04:53:36.609Z,9
2015-10-25T04:54:36.565Z,9
2015-10-25T04:55:36.490Z,9
2015-10-25T04:56:36.446Z,9
2015-10-25T04:57:36.387Z,9
2015-10-25T04:58:36.342Z,9
2015-10-25T04:59:36.283Z,9
2015-10-25T05:00:36.239Z,8.9
2015-10-25T05:01:36.179Z,9
2015-10-25T05:02:36.135Z,9
2015-10-25T05:03:36.075Z,9
2015-10-25T05:04:36.015Z,9
2015-10-25T05:05:35.971Z,9
2015-10-25T05:06:35.928Z,9.1
2015-10-25T05:07:35.867Z,9.1
2015-10-25T05:08:35.807Z,9.1
2015-10-25T05:09:35.763Z,8.9
2015-10-25T05:10:35.703Z,9
2015-10-25T05:11:35.644Z,8.9
2015-10-25T05:12:35.600Z,9
2015-10-25T05:13:35.540Z,9
2015-10-25T05:14:35.480Z,9.1
2015-10-25T05:15:35.436Z,9.1
2015-10-25T05:16:35.376Z,9.1
2015-10-25T05:17:35.332Z,9.2
2015-10-25T05:18:35.272Z,9.2
2015-10-25T05:19:35.228Z,9.1
2015-10-25T05:20:35.169Z,9.2
2015-10-25T05:21:35.125Z,9.1
2015-10-25T05:22:35.064Z,9.1
2015-10-25T05:23:35.020Z,9.1
2015-10-25T05:24:34.961Z,9.1
2015-10-25T05:25:34.901Z,9.1
2015-10-25T05:26:34.857Z,9.1
2015-10-25T05:27:34.797Z,9.1
2015-10-25T05:28:34.753Z,9.2
2015-10-25T05:29:34.693Z,9.2
2015-10-25T05:30:34.650Z,9.1
2015-10-25T05:31:34.589Z,9.1
2015-10-25T05:32:34.527Z,9.1
2015-10-25T05:33:34.483Z,9.1
2015-10-25T05:34:34.438Z,9.1
2015-10-25T05:35:34.379Z,9.1
2015-10-25T05:36:34.318Z,9.1
2015-10-25T05:37:34.274Z,9.1
2015-10-25T05:38:34.216Z,9.1
2015-10-25T05:39:34.171Z,9.1
2015-10-25T05:40:34.111Z,9.2
2015-10-25T05:41:34.051Z,9.1
2015-10-25T05:42:34.007Z,9.2
2015-10-25T05:43:33.964Z,9.2
2015-10-25T05:44:33.904Z,9.2
2015-10-25T05:45:33.844Z,9.2
2015-10-25T05:46:33.800Z,9.2
2015-10-25T05:47:33.740Z,9.2
2015-10-25T05:48:33.680Z,9.2
2015-10-25T05:49:33.635Z,9.2
2015-10-25T05:50:33.576Z,9.2
2015-10-25T05:51:33.532Z,9.2
2015-10-25T05:52:33.472Z,9.3
2015-10-25T05:53:33.429Z,9.2
2015-10-25T05:54:33.368Z,9.3
2015-10-25T05:55:33.324Z,9.3
2015-10-25T05:56:33.265Z,9.3
2015-10-25T05:57:33.221Z,9.3
2015-10-25T05:58:33.160Z,9.3
2015-10-25T05:59:33.101Z,9.3
2015-10-25T06:00:33.057Z,9.3
2015-10-25T06:01:32.997Z,9.3
2015-10-25T06:02:32.954Z,9.3
2015-10-25T06:03:32.893Z,9.4
2015-10-25T06:04:32.848Z,9.3
2015-10-25T06:05:32.790Z,9.4
2015-10-25T06:06:32.745Z,9.4
2015-10-25T06:07:32.686Z,9.4
2015-10-25T06:08:32.626Z,9.4
2015-10-25T06:09:32.581Z,9.5
2015-10-25T06:10:32.522Z,9.5
2015-10-25T06:11:32.634Z,9.5
2015-10-25T06:12:32.418Z,9.5
2015-10-25T06:13:32.374Z,9.5
2015-10-25T06:14:32.314Z,9.6
2015-10-25T06:15:32.270Z,9.6
2015-10-25T06:16:32.210Z,9.5
2015-10-25T06:17:32.163Z,9.5
2015-10-25T06:18:32.104Z,9.5
2015-10-25T06:19:32.044Z,9.4
2015-10-25T06:20:32.000Z,9.4
2015-10-25T06:21:31.986Z,9.5
2015-10-25T06:22:31.895Z,9.5
2015-10-25T06:23:31.836Z,9.5
2015-10-25T06:24:31.792Z,9.5
2015-10-25T06:25:31.732Z,9.5
2015-10-25T06:26:31.687Z,9.5
2015-10-25T06:27:31.628Z,9.5
2015-10-25T06:28:31.584Z,9.6
2015-10-25T06:29:31.524Z,9.6
2015-10-25T06:30:31.481Z,9.5
2015-10-25T06:31:31.421Z,9.5
2015-10-25T06:32:31.361Z,9.6
2015-10-25T06:33:31.317Z,9.5
2015-10-25T06:34:31.256Z,9.5
2015-10-25T06:35:31.198Z,9.5
2015-10-25T06:36:31.153Z,9.5
2015-10-25T06:37:31.093Z,9.5
2015-10-25T06:38:31.049Z,9.5
2015-10-25T06:39:30.989Z,9.5
2015-10-25T06:40:30.930Z,9.5
2015-10-25T06:41:30.886Z,9.6
2015-10-25T06:42:30.825Z,9.5
2015-10-25T06:43:30.781Z,9.6
2015-10-25T06:44:30.722Z,9.6
2015-10-25T06:45:30.678Z,9.6
2015-10-25T06:46:30.617Z,9.6
2015-10-25T06:47:30.574Z,9.6
2015-10-25T06:48:30.514Z,9.6
2015-10-25T06:49:30.455Z,9.6
2015-10-25T06:50:30.410Z,9.7
2015-10-25T06:51:30.350Z,9.6
2015-10-25T06:52:30.291Z,9.6
2015-10-25T06:53:30.247Z,9.6
2015-10-25T06:54:30.187Z,9.6
2015-10-25T06:55:30.143Z,9.7
2015-10-25T06:56:30.098Z,9.6
2015-10-25T06:57:30.039Z,9.6
2015-10-25T06:58:29.979Z,9.6
2015-10-25T06:59:29.919Z,9.6
2015-10-25T07:00:29.875Z,9.5
2015-10-25T07:01:29.815Z,9.5
2015-10-25T07:02:29.768Z,9.6
2015-10-25T07:03:29.709Z,9.6
2015-10-25T07:04:29.664Z,9.6
2015-10-25T07:05:29.605Z,9.6
2015-10-25T07:06:29.561Z,9.6
2015-10-25T07:07:29.501Z,9.6
2015-10-25T07:08:29.440Z,9.6
2015-10-25T07:09:29.397Z,9.6
2015-10-25T07:10:29.338Z,9.7
2015-10-25T07:11:29.293Z,9.7
2015-10-25T07:12:29.249Z,9.6
2015-10-25T07:13:29.189Z,9.6
2015-10-25T07:14:29.130Z,9.6
2015-10-25T07:15:29.085Z,9.6
2015-10-25T07:16:29.026Z,9.6
2015-10-25T07:17:28.982Z,9.6
2015-10-25T07:18:28.922Z,9.6
2015-10-25T07:19:28.862Z,9.6
2015-10-25T07:20:28.802Z,9.6
2015-10-25T07:21:28.758Z,9.6
2015-10-25T07:22:28.714Z,9.6
2015-10-25T07:23:28.655Z,9.7
2015-10-25T07:24:28.594Z,9.6
2015-10-25T07:25:28.551Z,9.7
2015-10-25T07:26:28.491Z,9.7
2015-10-25T07:27:28.447Z,9.7
2015-10-25T07:28:28.387Z,9.7
2015-10-25T07:29:28.327Z,9.7
2015-10-25T07:30:28.283Z,9.7
2015-10-25T07:31:28.223Z,9.8
2015-10-25T07:32:28.163Z,9.8
2015-10-25T07:33:28.119Z,9.8
2015-10-25T07:34:28.075Z,9.9
2015-10-25T07:35:28.015Z,9.9
2015-10-25T07:36:27.956Z,10
2015-10-25T07:37:27.912Z,10
2015-10-25T07:38:27.852Z,10
2015-10-25T07:39:27.792Z,10.1
2015-10-25T07:40:27.748Z,10.1
2015-10-25T07:41:27.688Z,10.1
2015-10-25T07:42:27.644Z,10.1
2015-10-25T07:43:27.584Z,10.2
2015-10-25T07:44:27.540Z,10.2
2015-10-25T07:45:27.481Z,10.1
2015-10-25T07:46:27.420Z,10.2
2015-10-25T07:47:27.376Z,10.2
2015-10-25T07:48:27.317Z,10.2
2015-10-25T07:49:27.273Z,10.2
2015-10-25T07:50:27.213Z,10.2
2015-10-25T07:51:27.166Z,10.2
2015-10-25T07:52:27.106Z,10.2
2015-10-25T07:53:27.062Z,10.2
2015-10-25T07:54:27.002Z,10.2
2015-10-25T07:55:26.942Z,10.2
2015-10-25T07:56:26.898Z,10.2
2015-10-25T07:57:26.839Z,10.3
2015-10-25T07:58:26.794Z,10.3
2015-10-25T07:59:26.750Z,10.3
2015-10-25T08:00:26.674Z,10.3
2015-10-25T08:01:26.631Z,10.3
2015-10-25T08:02:26.571Z,10.3
2015-10-25T08:03:26.527Z,10.3
2015-10-25T08:04:26.467Z,10.3
2015-10-25T08:05:26.423Z,10.4
2015-10-25T08:06:26.378Z,10.4
2015-10-25T08:07:26.319Z,10.4
2015-10-25T08:08:26.275Z,10.4
2015-10-25T08:09:26.215Z,10.4
2015-10-25T08:10:26.155Z,10.4
2015-10-25T08:11:26.111Z,10.5
2015-10-25T08:12:26.052Z,10.5
2015-10-25T08:13:25.991Z,10.4
2015-10-25T08:14:25.947Z,10.5
2015-10-25T08:15:25.888Z,10.5
2015-10-25T08:16:25.844Z,10.5
2015-10-25T08:17:25.799Z,10.5
2015-10-25T08:18:25.740Z,10.5
2015-10-25T08:19:25.681Z,10.5
2015-10-25T08:20:25.636Z,10.5
2015-10-25T08:21:25.592Z,10.6
2015-10-25T08:22:25.533Z,10.6
2015-10-25T08:23:25.488Z,10.6
2015-10-25T08:24:25.427Z,10.6
2015-10-25T08:25:25.368Z,10.6
2015-10-25T08:26:25.325Z,10.6
2015-10-25T08:27:25.264Z,10.6
2015-10-25T08:28:25.221Z,10.6
2015-10-25T08:29:25.161Z,10.6
2015-10-25T08:30:25.116Z,10.6
2015-10-25T08:31:25.057Z,10.7
2015-10-25T08:32:25.028Z,10.7
2015-10-25T08:33:24.969Z,10.6
2015-10-25T08:34:24.909Z,10.6
2015-10-25T08:35:24.847Z,10.6
2015-10-25T08:36:24.803Z,10.6
2015-10-25T08:37:24.758Z,10.6
2015-10-25T08:38:24.699Z,10.6
2015-10-25T08:39:24.638Z,10.7
2015-10-25T08:40:24.593Z,10.7
2015-10-25T08:41:24.535Z,10.7
2015-10-25T08:42:24.490Z,10.7
2015-10-25T08:43:24.430Z,10.7
2015-10-25T08:44:24.387Z,10.7
2015-10-25T08:45:24.326Z,10.8
2015-10-25T08:46:24.282Z,10.8
2015-10-25T08:47:24.224Z,10.8
2015-10-25T08:48:24.179Z,10.7
2015-10-25T08:49:24.118Z,10.7
2015-10-25T08:50:24.075Z,10.8
2015-10-25T08:51:24.015Z,10.8
2015-10-25T08:52:23.971Z,10.8
2015-10-25T08:53:23.912Z,10.8
2015-10-25T08:54:23.867Z,10.8
2015-10-25T08:55:23.807Z,10.9
2015-10-25T08:56:23.763Z,10.8
2015-10-25T08:57:23.704Z,10.9
2015-10-25T08:58:23.659Z,10.8
2015-10-25T08:59:23.599Z,10.9
2015-10-25T09:00:23.556Z,10.9
2015-10-25T09:01:24.980Z,10.9
2015-10-25T09:02:23.451Z,10.9
2015-10-25T09:03:23.392Z,11
2015-10-25T09:04:23.348Z,11
2015-10-25T09:05:23.288Z,11
2015-10-25T09:06:23.243Z,11
2015-10-25T09:07:23.185Z,11
2015-10-25T09:08:23.124Z,11
2015-10-25T09:09:23.081Z,11.1
2015-10-25T09:10:23.052Z,11.1
2015-10-25T09:11:22.976Z,11.1
2015-10-25T09:12:22.917Z,11.1
2015-10-25T09:13:22.873Z,11.2
2015-10-25T09:14:22.828Z,11.2
2015-10-25T09:15:22.768Z,11.2
2015-10-25T09:16:22.706Z,11.3
2015-10-25T09:17:22.662Z,11.3
2015-10-25T09:18:22.603Z,11.3
2015-10-25T09:19:22.559Z,11.4
2015-10-25T09:20:22.498Z,11.4
2015-10-25T09:21:22.454Z,11.4
2015-10-25T09:22:22.394Z,11.3
2015-10-25T09:23:22.350Z,11.4
2015-10-25T09:24:22.306Z,11.5
2015-10-25T09:25:23.934Z,11.5
2015-10-25T09:26:22.186Z,11.4
2015-10-25T09:27:22.142Z,11.5
2015-10-25T09:28:22.083Z,11.5
2015-10-25T09:29:22.039Z,11.5
2015-10-25T09:30:21.994Z,11.5
2015-10-25T09:31:21.951Z,11.5
2015-10-25T09:32:21.875Z,11.5
2015-10-25T09:33:21.831Z,11.6
2015-10-25T09:34:21.772Z,11.6
2015-10-25T09:35:21.728Z,11.7
2015-10-25T09:36:21.668Z,11.6
2015-10-25T09:37:21.623Z,11.7
2015-10-25T09:38:21.564Z,11.7
2015-10-25T09:39:21.519Z,11.7
2015-10-25T09:40:21.459Z,11.7
2015-10-25T09:41:21.416Z,11.7
2015-10-25T09:42:21.356Z,11.8
2015-10-25T09:43:21.312Z,11.8
2015-10-25T09:44:21.245Z,11.9
2015-10-25T09:45:21.173Z,11.9
2015-10-25T09:46:21.115Z,11.9
2015-10-25T09:47:21.058Z,11.9
2015-10-25T09:48:20.985Z,12.1
2015-10-25T09:49:20.917Z,12.1
2015-10-25T09:50:20.870Z,12.1
2015-10-25T09:51:20.821Z,12.1
2015-10-25T09:52:20.756Z,12.1
2015-10-25T09:53:20.692Z,12
2015-10-25T09:54:20.644Z,12
2015-10-25T09:55:20.583Z,12
2015-10-25T09:56:20.537Z,12
2015-10-25T09:57:20.477Z,11.9
2015-10-25T09:58:20.431Z,12
2015-10-25T09:59:20.370Z,12
2015-10-25T10:00:20.325Z,12
2015-10-25T10:01:20.264Z,11.9
2015-10-25T10:02:20.219Z,12
2015-10-25T10:03:20.159Z,11.9
2015-10-25T10:04:20.114Z,11.9
2015-10-25T10:05:20.055Z,11.9
2015-10-25T10:06:19.995Z,11.9
2015-10-25T10:07:19.951Z,11.9
2015-10-25T10:08:19.906Z,11.9
2015-10-25T10:09:19.847Z,11.9
2015-10-25T10:10:19.787Z,11.9
2015-10-25T10:11:19.743Z,11.9
2015-10-25T10:12:19.698Z,11.9
2015-10-25T10:13:19.639Z,11.9
2015-10-25T10:14:20.111Z,11.8
2015-10-25T10:15:19.520Z,11.8
2015-10-25T10:16:19.476Z,11.8
2015-10-25T10:17:19.414Z,11.8
2015-10-25T10:18:19.369Z,11.8
2015-10-25T10:19:19.309Z,11.8
2015-10-25T10:20:19.265Z,11.8
2015-10-25T10:21:19.205Z,11.8
2015-10-25T10:22:19.161Z,11.8
2015-10-25T10:23:19.101Z,11.8
2015-10-25T10:24:19.042Z,11.8
2015-10-25T10:25:18.998Z,11.8
2015-10-25T10:26:18.953Z,11.8
2015-10-25T10:27:18.893Z,11.8
2015-10-25T10:28:18.833Z,11.8
2015-10-25T10:29:18.789Z,11.8
2015-10-25T10:30:18.745Z,11.8
2015-10-25T10:31:18.686Z,11.8
2015-10-25T10:32:18.626Z,11.8
2015-10-25T10:33:18.582Z,11.8
2015-10-25T10:34:18.522Z,11.8
2015-10-25T10:35:18.477Z,11.8
2015-10-25T10:36:18.419Z,11.8
2015-10-25T10:37:18.358Z,11.7
2015-10-25T10:38:18.314Z,11.8
2015-10-25T10:39:18.270Z,11.8
2015-10-25T10:40:18.210Z,11.8
2015-10-25T10:41:18.149Z,11.8
2015-10-25T10:42:18.107Z,11.8
2015-10-25T10:43:18.046Z,11.8
2015-10-25T10:44:18.002Z,11.8
2015-10-25T10:45:17.943Z,11.8
2015-10-25T10:46:17.899Z,11.8
2015-10-25T10:47:17.839Z,11.9
2015-10-25T10:48:17.794Z,11.9
2015-10-25T10:49:17.735Z,11.9
2015-10-25T10:50:17.674Z,11.9
2015-10-25T10:51:17.632Z,11.9
2015-10-25T10:52:17.571Z,11.9
2015-10-25T10:53:17.526Z,11.9
2015-10-25T10:54:17.482Z,11.9
2015-10-25T10:55:17.438Z,11.8
2015-10-25T10:56:17.362Z,11.8
2015-10-25T10:57:17.317Z,11.8
2015-10-25T10:58:17.253Z,11.9
2015-10-25T10:59:17.208Z,11.8
2015-10-25T11:00:17.148Z,11.8
2015-10-25T11:01:17.104Z,11.8
2015-10-25T11:02:17.044Z,11.8
2015-10-25T11:03:17.000Z,11.8
2015-10-25T11:04:16.941Z,11.8
2015-10-25T11:05:16.897Z,11.8
2015-10-25T11:06:16.837Z,11.8
2015-10-25T11:07:16.777Z,11.8
2015-10-25T11:08:16.732Z,11.8
2015-10-25T11:09:16.688Z,11.8
2015-10-25T11:10:16.629Z,11.8
2015-10-25T11:11:16.568Z,11.9
2015-10-25T11:12:16.524Z,11.9
2015-10-25T11:13:16.465Z,12
2015-10-25T11:14:16.421Z,12.1
2015-10-25T11:15:16.361Z,12.2
2015-10-25T11:16:16.301Z,12.3
2015-10-25T11:17:16.257Z,12.3
2015-10-25T11:18:16.213Z,12.3
2015-10-25T11:19:16.154Z,12.3
2015-10-25T11:20:16.109Z,12.3
2015-10-25T11:21:16.049Z,12.4
2015-10-25T11:22:16.005Z,12.2
2015-10-25T11:23:15.946Z,12.2
2015-10-25T11:24:15.884Z,12.1
2015-10-25T11:25:15.839Z,12.1
2015-10-25T11:26:15.779Z,12.1
2015-10-25T11:27:15.734Z,12.1
2015-10-25T11:28:15.675Z,12.1
2015-10-25T11:29:15.631Z,12.1
2015-10-25T11:30:15.571Z,12.1
2015-10-25T11:31:15.511Z,12.1
2015-10-25T11:32:15.467Z,12.1
2015-10-25T11:33:15.423Z,12.2
2015-10-25T11:34:15.363Z,12.3
2015-10-25T11:35:15.319Z,12.5
2015-10-25T11:36:15.259Z,12.6
2015-10-25T11:37:15.215Z,12.5
2015-10-25T11:38:15.156Z,12.6
2015-10-25T11:39:15.111Z,12.6
2015-10-25T11:40:15.052Z,12.6
2015-10-25T11:41:15.008Z,12.5
2015-10-25T11:42:14.947Z,12.4
2015-10-25T11:43:14.903Z,12.3
2015-10-25T11:44:14.844Z,12.3
2015-10-25T11:45:14.800Z,12.3
2015-10-25T11:46:14.739Z,12.3
2015-10-25T11:47:14.680Z,12.2
2015-10-25T11:48:14.636Z,12.2
2015-10-25T11:49:14.576Z,12.2
2015-10-25T11:50:14.532Z,12.1
2015-10-25T11:51:14.471Z,12.1
2015-10-25T11:52:14.413Z,12.1
2015-10-25T11:53:14.383Z,12.1
2015-10-25T11:54:14.308Z,12.1
2015-10-25T11:55:14.263Z,12.1
2015-10-25T11:56:14.204Z,12.1
2015-10-25T11:57:14.159Z,12.1
2015-10-25T11:58:14.506Z,12.1
2015-10-25T11:59:14.056Z,12.1
2015-10-25T12:00:13.996Z,12.1
2015-10-25T12:01:13.951Z,12.1
2015-10-25T12:02:13.892Z,12.1
2015-10-25T12:03:13.848Z,12.2
2015-10-25T12:04:13.788Z,12.2
2015-10-25T12:05:13.744Z,12.2
2015-10-25T12:06:13.684Z,12.2
2015-10-25T12:07:13.640Z,12.2
2015-10-25T12:08:13.581Z,12.2
2015-10-25T12:10:13.476Z,12.1
2015-10-25T12:11:13.432Z,12.2
2015-10-25T12:12:13.372Z,12.2
2015-10-25T12:13:13.312Z,12.2
2015-10-25T12:14:13.269Z,12.1
2015-10-25T12:15:13.208Z,12.1
2015-10-25T12:16:13.165Z,12.2
2015-10-25T12:17:13.105Z,12.3
2015-10-25T12:18:13.061Z,12.4
2015-10-25T12:19:13.001Z,12.5
2015-10-25T12:20:12.956Z,12.6
2015-10-25T12:21:12.897Z,12.6
2015-10-25T12:22:12.853Z,12.6
2015-10-25T12:23:12.793Z,12.6
2015-10-25T12:24:12.749Z,12.7
2015-10-25T12:25:12.689Z,12.7
2015-10-25T12:26:12.645Z,12.8
2015-10-25T12:27:12.586Z,12.8
2015-10-25T12:28:12.542Z,12.8
2015-10-25T12:29:12.481Z,12.7
2015-10-25T12:30:12.438Z,12.5
2015-10-25T12:31:12.378Z,12.5
2015-10-25T12:32:12.334Z,12.4
2015-10-25T12:33:12.274Z,12.3
2015-10-25T12:34:12.229Z,12.2
2015-10-25T12:35:12.169Z,12.2
2015-10-25T12:36:12.125Z,12.2
2015-10-25T12:37:12.065Z,12.2
2015-10-25T12:38:12.005Z,12.2
2015-10-25T12:39:11.962Z,12.1
2015-10-25T12:40:11.902Z,12
2015-10-25T12:41:11.857Z,12
2015-10-25T12:42:11.798Z,12
2015-10-25T12:43:11.738Z,12
2015-10-25T12:44:11.693Z,12
2015-10-25T12:45:11.634Z,12
2015-10-25T12:46:11.589Z,12.1
2015-10-25T12:47:11.529Z,12.2
2015-10-25T12:48:11.486Z,12.2
2015-10-25T12:49:11.426Z,12.2
2015-10-25T12:50:11.381Z,12.2
2015-10-25T12:51:11.322Z,12.2
2015-10-25T12:52:11.278Z,12.2
2015-10-25T12:53:11.218Z,12.1
2015-10-25T12:54:11.173Z,12
2015-10-25T12:55:11.114Z,12
2015-10-25T12:56:11.053Z,12
2015-10-25T12:57:11.010Z,11.9
2015-10-25T12:58:10.966Z,12
2015-10-25T12:59:10.922Z,12
2015-10-25T13:00:10.846Z,12
2015-10-25T13:01:10.802Z,12
2015-10-25T13:02:10.758Z,12
2015-10-25T13:03:10.698Z,12
2015-10-25T13:04:10.638Z,12
2015-10-25T13:05:10.594Z,12.1
2015-10-25T13:06:10.550Z,12.1
2015-10-25T13:07:10.491Z,12
2015-10-25T13:08:10.430Z,12.1
2015-10-25T13:09:10.386Z,12.1
2015-10-25T13:10:10.326Z,12.1
2015-10-25T13:11:10.282Z,12.1
2015-10-25T13:12:10.222Z,12
2015-10-25T13:13:10.178Z,12.1
2015-10-25T13:14:10.118Z,12.1
2015-10-25T13:15:10.074Z,12.1
2015-10-25T13:16:10.015Z,12.1
2015-10-25T13:17:09.970Z,12.1
2015-10-25T13:18:09.910Z,12.1
2015-10-25T13:19:09.866Z,12.1
2015-10-25T13:20:09.807Z,12.1
2015-10-25T13:21:09.761Z,12.2
2015-10-25T13:22:09.702Z,12.2
2015-10-25T13:23:09.658Z,12.2
2015-10-25T13:24:09.598Z,12.2
2015-10-25T13:25:09.554Z,12.2
2015-10-25T13:26:09.495Z,12.2
2015-10-25T13:27:09.450Z,12.1
2015-10-25T13:28:09.389Z,12.1
2015-10-25T13:29:09.346Z,12.1
2015-10-25T13:30:09.287Z,12.1
2015-10-25T13:31:09.242Z,12.1
2015-10-25T13:32:09.182Z,12
2015-10-25T13:33:09.153Z,12.1
2015-10-25T13:34:09.078Z,12.1
2015-10-25T13:35:09.034Z,12.1
2015-10-25T13:36:08.974Z,12
2015-10-25T13:37:08.930Z,12
2015-10-25T13:38:08.870Z,12
2015-10-25T13:39:08.810Z,12
2015-10-25T13:40:08.781Z,12